createdAt,value
2023-04-27T00:02:28.655Z,95.10
2023-04-27T00:04:57.204Z,95.10
2023-04-27T00:07:26.592Z,95.00
2023-04-27T00:09:54.605Z,95.00
2023-04-27T00:12:22.737Z,95.10
2023-04-27T00:14:51.112Z,95.10
2023-04-27T00:17:19.252Z,95.10
2023-04-27T00:19:48.620Z,95.10
2023-04-27T00:22:16.693Z,95.10
2023-04-27T00:24:44.755Z,95.20
2023-04-27T00:27:13.574Z,95.20
2023-04-27T00:29:42.796Z,95.20
2023-04-27T00:32:11.314Z,95.20
2023-04-27T00:34:39.470Z,95.20
2023-04-27T00:37:08.850Z,95.20
2023-04-27T00:39:36.930Z,95.20
2023-04-27T00:42:05.140Z,95.20
2023-04-27T00:44:33.192Z,95.20
2023-04-27T00:47:01.218Z,95.20
2023-04-27T00:49:29.873Z,95.20
2023-04-27T00:51:57.893Z,95.20
2023-04-27T00:54:27.626Z,95.20
2023-04-27T00:56:55.625Z,95.30
2023-04-27T00:59:23.858Z,95.20
2023-04-27T01:01:52.047Z,95.20
2023-04-27T01:04:21.618Z,95.30
2023-04-27T01:06:49.734Z,95.30
2023-04-27T01:09:19.762Z,95.20
2023-04-27T01:11:49.152Z,95.30
2023-04-27T01:14:17.895Z,95.20
2023-04-27T01:16:47.097Z,95.20
2023-04-27T01:19:15.242Z,95.20
2023-04-27T01:21:43.331Z,95.20
2023-04-27T01:24:12.998Z,95.20
2023-04-27T01:26:41.032Z,95.20
2023-04-27T01:29:09.080Z,95.20
2023-04-27T01:31:37.147Z,95.20
2023-04-27T01:34:05.283Z,95.30
2023-04-27T01:36:33.415Z,95.30
2023-04-27T01:39:01.401Z,95.30
2023-04-27T01:41:31.393Z,95.30
2023-04-27T01:43:59.392Z,95.40
2023-04-27T01:46:27.485Z,95.50
2023-04-27T01:48:55.572Z,95.50
2023-04-27T01:51:23.754Z,95.50
2023-04-27T01:53:51.819Z,95.50
2023-04-27T01:56:19.800Z,95.60
2023-04-27T01:58:49.137Z,95.60
2023-04-27T02:01:17.174Z,95.60
2023-04-27T02:03:45.356Z,95.70
2023-04-27T02:06:13.726Z,95.70
2023-04-27T02:08:41.795Z,95.70
2023-04-27T02:11:10.114Z,95.80
2023-04-27T02:13:38.099Z,95.80
2023-04-27T02:16:08.490Z,95.90
2023-04-27T02:18:36.517Z,96.00
2023-04-27T02:21:10.899Z,96.00
2023-04-27T02:23:38.961Z,96.10
2023-04-27T02:26:07.217Z,96.10
2023-04-27T02:28:35.217Z,96.10
2023-04-27T02:31:03.670Z,96.40
2023-04-27T02:33:33.359Z,96.10
2023-04-27T02:36:01.400Z,96.20
2023-04-27T02:42:10.586Z,96.20
2023-04-27T02:44:38.567Z,96.20
2023-04-27T02:47:06.577Z,96.20
2023-04-27T02:49:38.046Z,96.30
2023-04-27T02:52:06.538Z,96.20
2023-04-27T02:54:35.117Z,96.30
2023-04-27T02:57:03.334Z,96.30
2023-04-27T02:59:31.386Z,96.30
2023-04-27T03:01:59.448Z,96.30
2023-04-27T03:04:28.533Z,96.30
2023-04-27T03:06:58.033Z,96.30
2023-04-27T03:09:26.140Z,96.30
2023-04-27T03:11:54.175Z,96.30
2023-04-27T03:14:23.248Z,96.30
2023-04-27T03:16:51.343Z,96.40
2023-04-27T03:19:19.396Z,96.30
2023-04-27T03:21:47.403Z,96.30
2023-04-27T03:24:17.248Z,96.40
2023-04-27T03:26:45.316Z,96.40
2023-04-27T03:29:15.719Z,96.40
2023-04-27T03:31:43.875Z,96.40
2023-04-27T03:34:11.953Z,96.40
2023-04-27T03:36:39.949Z,96.40
2023-04-27T03:39:08.177Z,96.40
2023-04-27T03:41:37.515Z,96.40
2023-04-27T03:44:06.077Z,96.40
2023-04-27T03:46:34.307Z,96.40
2023-04-27T03:49:02.396Z,96.70
2023-04-27T03:51:32.078Z,96.40
2023-04-27T03:54:00.136Z,96.40
2023-04-27T03:56:28.238Z,96.40
2023-04-27T03:58:57.644Z,96.40
2023-04-27T04:01:25.663Z,96.50
2023-04-27T04:03:53.801Z,96.40
2023-04-27T04:06:21.927Z,96.50
2023-04-27T04:08:49.995Z,96.50
2023-04-27T04:11:18.133Z,96.40
2023-04-27T04:13:46.160Z,96.40
2023-04-27T04:16:15.551Z,96.50
2023-04-27T04:18:43.760Z,96.50
2023-04-27T04:21:12.016Z,96.60
2023-04-27T04:23:41.301Z,96.60
2023-04-27T04:26:09.997Z,96.60
2023-04-27T04:28:38.229Z,96.60
2023-04-27T04:31:06.613Z,96.70
2023-04-27T04:33:35.983Z,96.60
2023-04-27T04:36:05.087Z,96.50
2023-04-27T04:38:33.712Z,96.60
2023-04-27T04:41:02.495Z,96.60
2023-04-27T04:43:30.573Z,96.60
2023-04-27T04:45:58.626Z,96.60
2023-04-27T04:48:26.636Z,96.60
2023-04-27T04:50:57.171Z,96.50
2023-04-27T04:53:26.202Z,96.50
2023-04-27T04:55:54.342Z,96.60
2023-04-27T04:58:22.377Z,96.50
2023-04-27T05:00:52.211Z,96.50
2023-04-27T05:03:20.430Z,96.40
2023-04-27T05:05:49.610Z,96.50
2023-04-27T05:08:19.082Z,96.40
2023-04-27T05:10:51.108Z,96.40
2023-04-27T05:13:19.311Z,96.40
2023-04-27T05:15:49.787Z,96.30
2023-04-27T05:18:17.868Z,96.30
2023-04-27T05:20:46.271Z,96.30
2023-04-27T05:23:14.421Z,96.30
2023-04-27T05:25:43.921Z,96.20
2023-04-27T05:28:12.259Z,96.30
2023-04-27T05:30:40.458Z,96.30
2023-04-27T05:33:08.556Z,96.40
2023-04-27T05:35:36.594Z,96.40
2023-04-27T05:38:04.573Z,96.40
2023-04-27T05:40:32.647Z,96.10
2023-04-27T05:43:05.385Z,96.20
2023-04-27T05:45:33.621Z,96.30
2023-04-27T05:48:01.849Z,96.20
2023-04-27T05:50:29.917Z,96.20
2023-04-27T05:52:57.969Z,96.20
2023-04-27T05:55:26.069Z,95.90
2023-04-27T05:58:07.043Z,95.80
2023-04-27T06:00:38.295Z,95.70
2023-04-27T06:03:06.588Z,95.70
2023-04-27T06:05:34.955Z,95.70
2023-04-27T06:08:03.237Z,95.60
2023-04-27T06:10:31.251Z,95.60
2023-04-27T06:12:59.386Z,95.70
2023-04-27T06:15:27.384Z,96.00
2023-04-27T06:17:56.893Z,95.70
2023-04-27T06:20:25.148Z,95.80
2023-04-27T06:22:53.172Z,95.90
2023-04-27T06:25:21.306Z,95.70
2023-04-27T06:27:49.260Z,95.50
2023-04-27T06:30:18.202Z,95.40
2023-04-27T06:32:46.303Z,95.40
2023-04-27T06:35:16.282Z,95.30
2023-04-27T06:37:44.674Z,95.40
2023-04-27T06:40:13.259Z,95.30
2023-04-27T06:42:41.278Z,95.30
2023-04-27T06:45:09.830Z,95.30
2023-04-27T06:47:37.836Z,95.40
2023-04-27T06:50:06.436Z,95.20
2023-04-27T06:52:35.847Z,95.40
2023-04-27T06:55:04.006Z,95.50
2023-04-27T06:57:32.082Z,95.60
2023-04-27T07:00:00.206Z,95.50
2023-04-27T07:02:31.041Z,95.30
2023-04-27T07:04:59.248Z,94.90
2023-04-27T07:07:27.388Z,94.90
2023-04-27T07:09:56.851Z,94.70
2023-04-27T07:12:24.860Z,94.60
2023-04-27T07:14:52.835Z,94.50
2023-04-27T07:17:21.425Z,94.40
2023-04-27T07:19:49.894Z,94.40
2023-04-27T07:22:18.222Z,94.40
2023-04-27T07:24:46.220Z,94.60
2023-04-27T07:27:15.742Z,94.40
2023-04-27T07:29:44.494Z,94.40
2023-04-27T07:32:12.641Z,94.50
2023-04-27T07:34:51.956Z,94.70
2023-04-27T07:37:21.375Z,94.70
2023-04-27T07:39:50.410Z,94.30
2023-04-27T07:42:19.923Z,93.90
2023-04-27T07:44:50.221Z,94.10
2023-04-27T07:47:18.667Z,94.30
2023-04-27T07:49:47.185Z,94.00
2023-04-27T07:52:15.851Z,93.90
2023-04-27T07:54:43.978Z,93.70
2023-04-27T07:57:12.600Z,93.20
2023-04-27T07:59:42.078Z,92.90
2023-04-27T08:02:18.555Z,92.80
2023-04-27T08:04:48.553Z,92.70
2023-04-27T08:07:17.580Z,93.00
2023-04-27T08:09:46.173Z,92.70
2023-04-27T08:12:14.218Z,92.60
2023-04-27T08:14:43.977Z,92.50
2023-04-27T08:17:12.471Z,92.50
2023-04-27T08:19:42.733Z,92.50
2023-04-27T08:22:10.969Z,92.30
2023-04-27T08:24:39.199Z,92.20
2023-04-27T08:27:07.947Z,92.30
2023-04-27T08:29:36.164Z,92.50
2023-04-27T08:32:08.961Z,92.40
2023-04-27T08:34:40.931Z,92.10
2023-04-27T08:37:09.126Z,91.90
2023-04-27T08:39:37.221Z,91.70
2023-04-27T08:42:12.619Z,91.70
2023-04-27T08:44:41.298Z,91.20
2023-04-27T08:47:11.081Z,91.00
2023-04-27T08:49:41.490Z,90.90
2023-04-27T08:52:14.526Z,91.00
2023-04-27T08:54:43.579Z,91.00
2023-04-27T08:57:12.894Z,90.80
2023-04-27T08:59:41.073Z,90.80
2023-04-27T09:02:19.756Z,91.00
2023-04-27T09:04:48.432Z,91.00
2023-04-27T09:07:18.177Z,91.10
2023-04-27T09:09:50.285Z,90.90
2023-04-27T09:12:21.190Z,90.90
2023-04-27T09:14:59.132Z,90.90
2023-04-27T09:17:31.578Z,90.90
2023-04-27T09:20:10.793Z,91.10
2023-04-27T09:22:46.948Z,90.90
2023-04-27T09:25:27.908Z,90.60
2023-04-27T09:27:57.920Z,90.60
2023-04-27T09:30:26.723Z,90.70
2023-04-27T09:32:57.829Z,90.40
2023-04-27T09:35:27.638Z,90.50
2023-04-27T09:37:56.652Z,90.70
2023-04-27T09:40:30.750Z,90.60
2023-04-27T09:43:01.312Z,90.00
2023-04-27T09:45:29.684Z,89.70
2023-04-27T09:47:59.978Z,89.20
2023-04-27T09:50:28.208Z,89.50
2023-04-27T09:52:57.279Z,90.20
2023-04-27T09:55:29.634Z,90.40
2023-04-27T09:58:15.682Z,90.10
2023-04-27T10:00:54.033Z,88.50
2023-04-27T10:03:29.405Z,87.90
2023-04-27T10:06:53.188Z,88.00
2023-04-27T10:09:24.670Z,88.40
2023-04-27T10:11:53.574Z,88.90
2023-04-27T10:14:23.373Z,88.60
2023-04-27T10:16:53.672Z,88.70
2023-04-27T10:19:24.589Z,88.60
2023-04-27T10:21:54.471Z,88.60
2023-04-27T10:24:32.957Z,88.40
2023-04-27T10:27:06.378Z,88.70
2023-04-27T10:29:39.820Z,88.90
2023-04-27T10:32:08.890Z,88.90
2023-04-27T10:34:40.249Z,87.70
2023-04-27T10:37:09.811Z,87.30
2023-04-27T10:39:47.609Z,86.80
2023-04-27T10:42:28.468Z,85.60
2023-04-27T10:44:59.059Z,85.80
2023-04-27T10:47:38.360Z,85.00
2023-04-27T10:50:11.409Z,85.20
2023-04-27T10:52:42.309Z,85.50
2023-04-27T10:55:17.609Z,84.50
2023-04-27T10:57:50.847Z,84.80
2023-04-27T11:00:25.332Z,86.60
2023-04-27T11:02:54.129Z,86.50
2023-04-27T11:05:28.940Z,85.50
2023-04-27T11:08:06.959Z,85.10
2023-04-27T11:10:40.202Z,83.70
2023-04-27T11:13:12.546Z,83.80
2023-04-27T11:15:47.860Z,82.60
2023-04-27T11:18:17.215Z,80.80
2023-04-27T11:20:49.471Z,81.20
2023-04-27T11:23:28.794Z,82.00
2023-04-27T11:25:57.437Z,82.30
2023-04-27T11:28:26.106Z,82.80
2023-04-27T11:30:57.722Z,83.30
2023-04-27T11:33:26.312Z,83.40
2023-04-27T11:35:56.588Z,83.10
2023-04-27T11:38:24.875Z,82.70
2023-04-27T11:41:03.909Z,83.00
2023-04-27T11:43:32.354Z,83.10
2023-04-27T11:46:03.471Z,83.20
2023-04-27T11:48:31.633Z,82.40
2023-04-27T11:51:01.565Z,82.70
2023-04-27T11:53:33.845Z,83.00
2023-04-27T11:56:03.537Z,83.50
2023-04-27T11:58:31.651Z,82.70
2023-04-27T12:00:59.701Z,82.70
2023-04-27T12:03:29.141Z,82.90
2023-04-27T12:06:04.113Z,82.10
2023-04-27T12:08:41.332Z,81.70
2023-04-27T12:11:09.303Z,81.20
2023-04-27T12:13:37.543Z,79.90
2023-04-27T12:16:06.085Z,80.30
2023-04-27T12:18:34.373Z,80.10
2023-04-27T12:21:03.507Z,80.20
2023-04-27T12:23:32.229Z,80.30
2023-04-27T12:26:02.084Z,80.90
2023-04-27T12:28:30.335Z,81.50
2023-04-27T12:30:59.034Z,81.30
2023-04-27T12:33:27.278Z,81.80
2023-04-27T12:35:55.278Z,81.60
2023-04-27T12:38:23.665Z,82.20
2023-04-27T12:40:51.814Z,82.30
2023-04-27T12:43:21.734Z,81.30
2023-04-27T12:45:50.011Z,80.50
2023-04-27T12:48:18.674Z,80.60
2023-04-27T12:50:54.501Z,80.70
2023-04-27T12:53:23.721Z,81.30
2023-04-27T12:55:51.837Z,81.60
2023-04-27T12:58:23.847Z,81.80
2023-04-27T13:00:52.125Z,81.80
2023-04-27T13:03:20.533Z,80.60
2023-04-27T13:05:48.883Z,80.30
2023-04-27T13:08:17.264Z,79.70
2023-04-27T13:10:45.888Z,79.00
2023-04-27T13:13:16.349Z,79.20
2023-04-27T13:15:46.607Z,78.90
2023-04-27T13:18:17.925Z,78.90
2023-04-27T13:20:46.849Z,79.70
2023-04-27T13:23:15.063Z,79.30
2023-04-27T13:25:43.322Z,79.20
2023-04-27T13:28:11.348Z,78.90
2023-04-27T13:30:39.536Z,78.80
2023-04-27T13:33:21.774Z,78.00
2023-04-27T13:35:51.228Z,78.20
2023-04-27T13:38:19.714Z,78.60
2023-04-27T13:40:55.134Z,78.40
2023-04-27T13:43:23.291Z,78.40
2023-04-27T13:45:52.648Z,78.60
2023-04-27T13:48:22.379Z,78.50
2023-04-27T13:50:51.044Z,77.90
2023-04-27T13:53:20.014Z,78.20
2023-04-27T13:55:48.132Z,78.10
2023-04-27T13:58:16.433Z,77.50
2023-04-27T14:00:44.569Z,76.90
2023-04-27T14:03:12.795Z,77.00
2023-04-27T14:05:42.356Z,77.40
2023-04-27T14:08:10.392Z,77.20
2023-04-27T14:10:38.649Z,77.50
2023-04-27T14:13:07.086Z,77.50
2023-04-27T14:15:37.283Z,77.40
2023-04-27T14:18:07.587Z,77.60
2023-04-27T14:20:36.142Z,77.80
2023-04-27T14:23:06.944Z,78.80
2023-04-27T14:25:35.395Z,78.50
2023-04-27T14:28:04.742Z,78.20
2023-04-27T14:30:33.468Z,78.10
2023-04-27T14:33:01.799Z,78.00
2023-04-27T14:35:29.964Z,78.60
2023-04-27T14:38:02.386Z,78.50
2023-04-27T14:40:32.650Z,78.50
2023-04-27T14:43:01.068Z,77.80
2023-04-27T14:45:37.034Z,77.20
2023-04-27T14:48:12.010Z,77.10
2023-04-27T14:50:40.092Z,76.20
2023-04-27T14:53:08.070Z,76.60
2023-04-27T14:55:38.617Z,77.10
2023-04-27T14:58:06.655Z,77.50
2023-04-27T15:00:34.719Z,78.00
2023-04-27T15:03:02.874Z,78.20
2023-04-27T15:05:31.755Z,78.40
2023-04-27T15:07:59.756Z,78.70
2023-04-27T15:10:27.912Z,77.60
2023-04-27T15:12:57.294Z,76.20
2023-04-27T15:15:25.567Z,75.80
2023-04-27T15:17:53.637Z,75.70
2023-04-27T15:20:21.693Z,75.50
2023-04-27T15:22:49.732Z,75.70
2023-04-27T15:25:17.827Z,76.20
2023-04-27T15:27:46.018Z,76.40
2023-04-27T15:30:16.434Z,76.30
2023-04-27T15:32:44.443Z,76.40
2023-04-27T15:35:12.519Z,77.10
2023-04-27T15:37:41.028Z,77.50
2023-04-27T15:40:10.629Z,77.20
2023-04-27T15:42:38.766Z,77.70
2023-04-27T15:45:09.841Z,77.60
2023-04-27T15:47:39.762Z,78.10
2023-04-27T15:50:09.376Z,78.10
2023-04-27T15:52:37.376Z,78.20
2023-04-27T15:55:06.256Z,77.30
2023-04-27T15:57:34.411Z,76.30
2023-04-27T16:00:06.639Z,76.50
2023-04-27T16:02:34.851Z,76.30
2023-04-27T16:05:05.553Z,75.60
2023-04-27T16:07:33.801Z,76.00
2023-04-27T16:10:02.141Z,74.60
2023-04-27T16:12:30.387Z,73.20
2023-04-27T16:14:59.050Z,73.70
2023-04-27T16:17:28.825Z,72.40
2023-04-27T16:19:57.014Z,72.20
2023-04-27T16:22:27.979Z,72.70
2023-04-27T16:24:56.219Z,72.60
2023-04-27T16:27:30.686Z,71.60
2023-04-27T16:29:59.119Z,71.10
2023-04-27T16:32:27.639Z,71.10
2023-04-27T16:34:55.816Z,69.70
2023-04-27T16:37:24.020Z,70.10
2023-04-27T16:39:54.163Z,69.50
2023-04-27T16:42:23.429Z,69.40
2023-04-27T16:44:51.498Z,69.70
2023-04-27T16:47:19.481Z,69.40
2023-04-27T16:49:47.976Z,69.00
2023-04-27T16:52:17.225Z,67.50
2023-04-27T16:54:45.306Z,68.40
2023-04-27T16:57:14.985Z,68.30
2023-04-27T16:59:43.128Z,68.40
2023-04-27T17:02:23.907Z,69.00
2023-04-27T17:04:53.119Z,68.30
2023-04-27T17:07:21.346Z,67.90
2023-04-27T17:09:49.670Z,67.40
2023-04-27T17:12:19.211Z,67.10
2023-04-27T17:14:47.340Z,68.00
2023-04-27T17:17:15.584Z,67.60
2023-04-27T17:19:43.732Z,67.70
2023-04-27T17:22:13.328Z,67.60
2023-04-27T17:24:41.452Z,67.40
2023-04-27T17:27:09.673Z,67.80
2023-04-27T17:29:39.211Z,66.90
2023-04-27T17:32:07.515Z,66.50
2023-04-27T17:34:35.481Z,66.20
2023-04-27T17:37:03.628Z,66.30
2023-04-27T17:39:31.632Z,66.60
2023-04-27T17:41:59.742Z,66.70
2023-04-27T17:44:28.066Z,67.20
2023-04-27T17:46:57.607Z,67.40
2023-04-27T17:49:25.827Z,67.60
2023-04-27T17:51:54.018Z,67.60
2023-04-27T17:54:23.660Z,67.70
2023-04-27T17:56:51.680Z,68.00
2023-04-27T17:59:19.691Z,68.10
2023-04-27T18:01:47.692Z,68.50
2023-04-27T18:04:17.336Z,68.70
2023-04-27T18:06:45.572Z,69.00
2023-04-27T18:09:14.001Z,69.20
2023-04-27T18:11:42.472Z,69.40
2023-04-27T18:14:10.490Z,69.70
2023-04-27T18:16:38.931Z,70.00
2023-04-27T18:19:07.012Z,70.10
2023-04-27T18:21:36.659Z,70.30
2023-04-27T18:24:05.622Z,70.50
2023-04-27T18:26:36.160Z,70.90
2023-04-27T18:29:07.866Z,71.10
2023-04-27T18:31:36.235Z,71.30
2023-04-27T18:34:04.413Z,71.60
2023-04-27T18:36:32.785Z,71.80
2023-04-27T18:39:02.326Z,72.10
2023-04-27T18:41:30.359Z,72.40
2023-04-27T18:44:05.286Z,72.60
2023-04-27T18:46:33.602Z,73.00
2023-04-27T18:49:01.938Z,73.20
2023-04-27T18:51:32.171Z,73.40
2023-04-27T18:54:01.659Z,73.60
2023-04-27T18:56:29.832Z,74.60
2023-04-27T18:58:57.941Z,74.80
2023-04-27T19:01:27.971Z,74.20
2023-04-27T19:03:56.762Z,74.40
2023-04-27T19:06:25.427Z,74.70
2023-04-27T19:08:53.531Z,74.90
2023-04-27T19:11:24.964Z,75.10
2023-04-27T19:13:53.887Z,75.40
2023-04-27T19:16:21.894Z,75.80
2023-04-27T19:18:50.105Z,76.20
2023-04-27T19:21:18.134Z,76.60
2023-04-27T19:23:46.333Z,76.80
2023-04-27T19:26:14.573Z,77.10
2023-04-27T19:28:44.116Z,77.40
2023-04-27T19:31:12.196Z,77.70
2023-04-27T19:33:46.672Z,77.90
2023-04-27T19:36:15.791Z,78.10
2023-04-27T19:38:43.797Z,78.20
2023-04-27T19:41:13.977Z,78.60
2023-04-27T19:43:43.414Z,78.90
2023-04-27T19:46:11.541Z,79.10
2023-04-27T19:48:41.102Z,79.30
2023-04-27T19:51:10.439Z,79.50
2023-04-27T19:53:38.574Z,79.70
2023-04-27T19:56:07.466Z,80.00
2023-04-27T19:58:35.958Z,80.30
2023-04-27T20:01:06.222Z,81.20
2023-04-27T20:03:35.725Z,80.70
2023-04-27T20:06:04.498Z,80.80
2023-04-27T20:08:34.130Z,81.00
2023-04-27T20:11:02.307Z,81.30
2023-04-27T20:13:30.402Z,81.50
2023-04-27T20:15:59.194Z,81.60
2023-04-27T20:18:31.659Z,81.80
2023-04-27T20:21:00.169Z,82.00
2023-04-27T20:23:28.370Z,82.20
2023-04-27T20:25:56.454Z,82.60
2023-04-27T20:28:24.551Z,82.70
2023-04-27T20:30:54.291Z,82.80
2023-04-27T20:33:22.542Z,83.00
2023-04-27T20:35:55.472Z,83.20
2023-04-27T20:38:25.125Z,83.40
2023-04-27T20:40:54.431Z,83.50
2023-04-27T20:43:22.856Z,83.80
2023-04-27T20:45:50.888Z,83.80
2023-04-27T20:48:19.259Z,84.10
2023-04-27T20:50:47.317Z,84.40
2023-04-27T20:53:17.067Z,84.50
2023-04-27T20:55:48.689Z,84.80
2023-04-27T20:58:19.128Z,84.90
2023-04-27T21:00:47.520Z,85.10
2023-04-27T21:03:15.885Z,85.30
2023-04-27T21:05:44.107Z,85.40
2023-04-27T21:08:12.069Z,85.70
2023-04-27T21:10:41.438Z,85.80
2023-04-27T21:13:09.440Z,85.90
2023-04-27T21:15:37.512Z,86.90
2023-04-27T21:18:07.837Z,86.30
2023-04-27T21:20:37.621Z,86.60
2023-04-27T21:23:05.715Z,86.70
2023-04-27T21:25:34.820Z,86.90
2023-04-27T21:28:04.296Z,87.10
2023-04-27T21:30:32.316Z,87.20
2023-04-27T21:33:00.689Z,87.20
2023-04-27T21:35:29.060Z,87.30
2023-04-27T21:37:57.224Z,87.40
2023-04-27T21:40:25.601Z,87.60
2023-04-27T21:42:54.323Z,87.70
2023-04-27T21:45:24.751Z,87.70
2023-04-27T21:47:52.861Z,87.90
2023-04-27T21:50:21.575Z,87.90
2023-04-27T21:52:49.766Z,88.00
2023-04-27T21:55:18.094Z,88.30
2023-04-27T21:57:46.212Z,88.30
2023-04-27T22:00:15.720Z,88.40
2023-04-27T22:02:45.430Z,88.60
2023-04-27T22:05:14.089Z,88.70
2023-04-27T22:07:43.249Z,88.80
2023-04-27T22:10:11.944Z,88.80
2023-04-27T22:12:40.581Z,89.00
2023-04-27T22:15:09.661Z,89.10
2023-04-27T22:17:41.521Z,89.10
2023-04-27T22:20:12.656Z,89.30
2023-04-27T22:22:40.779Z,89.40
2023-04-27T22:25:09.739Z,89.60
2023-04-27T22:27:44.957Z,89.60
2023-04-27T22:30:15.360Z,89.70
2023-04-27T22:32:43.643Z,89.90
2023-04-27T22:35:25.639Z,90.00
2023-04-27T22:37:56.280Z,90.00
2023-04-27T22:40:24.648Z,90.00
2023-04-27T22:42:53.024Z,90.10
2023-04-27T22:45:21.258Z,90.20
2023-04-27T22:47:49.712Z,90.30
2023-04-27T22:50:19.649Z,90.30
2023-04-27T22:52:48.427Z,90.40
2023-04-27T22:55:17.146Z,90.40
2023-04-27T22:57:45.504Z,90.50
2023-04-27T23:00:14.208Z,90.50
2023-04-27T23:02:42.819Z,90.90
2023-04-27T23:05:12.393Z,90.70
2023-04-27T23:07:42.849Z,90.70
2023-04-27T23:10:13.034Z,90.80
2023-04-27T23:12:41.669Z,90.90
2023-04-27T23:15:10.227Z,90.90
2023-04-27T23:17:38.478Z,91.00
2023-04-27T23:20:24.113Z,91.00
2023-04-27T23:22:58.485Z,91.10
2023-04-27T23:25:26.541Z,91.10
2023-04-27T23:27:54.886Z,91.10
2023-04-27T23:30:23.131Z,91.20
2023-04-27T23:32:51.196Z,91.20
2023-04-27T23:35:19.420Z,91.30
2023-04-27T23:37:47.460Z,91.30
2023-04-27T23:40:17.065Z,91.30
2023-04-27T23:42:45.208Z,91.30
2023-04-27T23:45:13.447Z,91.30
2023-04-27T23:47:42.189Z,91.30
2023-04-27T23:50:10.719Z,91.30
2023-04-27T23:52:38.755Z,91.40
2023-04-27T23:55:07.924Z,91.40
2023-04-27T23:57:37.334Z,91.60
